Stations météo

réclame
Mon MeteoGroup
Zumaya, Espagne (8026): Température de l'air & dewpoint: 17.09.2018 02:00:00 - 23.09.2018 02:00:00 (CEST)Zumaya, Espagne (8026): Vitesse du vent & gusts: 17.09.2018 02:00:00 - 23.09.2018 02:00:00 (CEST)Zumaya, Espagne (8026): Direction du vent: 17.09.2018 02:00:00 - 23.09.2018 02:00:00 (CEST)Zumaya, Espagne (8026): Quantités de précipitations: 17.09.2018 02:00:00 - 23.09.2018 02:00:00 (CEST)
Date & Time tt [°C] td [°C] ff [km/h] ff [knt] fx [km/h] fx [knt] dd rr [mm]
23.09.2018 02:00:00 18,2 17,1 8 4 14 7 S -
23.09.2018 01:00:00 18,2 16,9 8 4 14 8 S 0,0
23.09.2018 00:00:00 18,8 17,3 10 5 14 8 S 0,0
22.09.2018 23:00:00 19,3 17,3 9 5 12 7 S 0,0
22.09.2018 22:00:00 20,2 17,4 8 5 11 6 S 0,0
22.09.2018 21:00:00 21,2 16,8 0 0 0 0 N 0,0
22.09.2018 20:00:00 23,1 16,4 0 0 5 3 N -
22.09.2018 19:00:00 24,0 18,4 0 0 0 0 N 0,0
22.09.2018 18:00:00 24,2 18,8 0 0 0 0 N 0,0
22.09.2018 17:00:00 25,1 19,7 0 0 0 0 N 0,0
22.09.2018 16:00:00 24,8 19,8 0 0 19 10 N 0,0
22.09.2018 15:00:00 23,4 18,7 13 7 23 12 NE 0,0
22.09.2018 14:00:00 23,6 19,1 12 7 23 13 NE -
22.09.2018 13:00:00 23,4 19,3 16 9 22 12 NE 0,0
22.09.2018 12:00:00 22,2 18,6 3 2 13 7 NNE 0,0
22.09.2018 11:00:00 22,2 20,5 0 0 0 0 N 0,0
22.09.2018 10:00:00 19,9 19,8 2 1 10 6 S 0,0
22.09.2018 09:00:00 17,6 17,5 7 4 12 7 S 0,0
22.09.2018 08:00:00 17,5 17,4 5 3 10 5 S -
22.09.2018 07:00:00 17,7 17,4 2 1 10 5 S 0,0
22.09.2018 06:00:00 17,9 17,4 0 0 0 0 N 0,0
22.09.2018 05:00:00 18,4 17,9 0 0 8 5 N 0,0
22.09.2018 04:00:00 18,8 18,3 0 0 9 5 N 0,0
22.09.2018 03:00:00 19,0 18,3 1 0 11 6 SSE 0,0
22.09.2018 02:00:00 19,2 18,5 0 0 14 8 N -
22.09.2018 01:00:00 19,7 19,2 3 2 24 13 SE 0,0
22.09.2018 00:00:00 19,4 18,8 15 8 23 12 NE 0,0
21.09.2018 23:00:00 19,5 18,8 18 10 29 16 NE 0,0
21.09.2018 22:00:00 19,7 18,9 13 7 19 10 NNE 0,0
21.09.2018 21:00:00 20,2 19,6 0 0 0 0 N 0,1
21.09.2018 20:00:00 20,2 19,1 2 1 26 14 NNW -
21.09.2018 19:00:00 21,2 19,0 2 1 18 10 NNW 0,0
21.09.2018 18:00:00 21,6 18,8 16 9 43 23 NNW 0,0
21.09.2018 17:00:00 22,4 18,5 30 16 45 24 NW 0,0
21.09.2018 16:00:00 23,9 18,8 28 15 40 21 NW 0,0
21.09.2018 15:00:00 24,5 17,7 23 12 32 17 NW 0,0
21.09.2018 14:00:00 25,1 17,1 19 11 27 14 NW -
21.09.2018 13:00:00 24,8 17,5 1 1 9 5 WNW 0,0
21.09.2018 12:00:00 23,5 20,1 0 0 11 6 N 0,0
21.09.2018 11:00:00 21,2 20,1 6 4 15 8 S 0,0
21.09.2018 10:00:00 19,6 19,1 9 5 14 8 S 0,0
21.09.2018 09:00:00 18,3 17,9 9 5 13 7 S 0,0
21.09.2018 08:00:00 17,9 17,4 7 4 13 7 S -
21.09.2018 07:00:00 18,3 17,9 8 5 13 7 S 0,0
21.09.2018 06:00:00 18,3 17,6 7 4 14 7 SSW 0,0
21.09.2018 05:00:00 18,5 17,9 7 4 11 6 S 0,0
21.09.2018 04:00:00 18,6 17,9 6 3 13 7 S 0,0
21.09.2018 03:00:00 18,8 18,0 7 4 11 6 S 0,0
21.09.2018 02:00:00 19,7 18,9 4 2 11 6 S -
21.09.2018 01:00:00 19,7 18,4 6 3 9 5 S 0,0
21.09.2018 00:00:00 20,2 18,5 5 3 7 4 SSW 0,0
20.09.2018 23:00:00 20,6 18,9 4 2 10 5 SSW 0,0
20.09.2018 22:00:00 21,2 19,1 6 3 18 10 WNW 0,0
20.09.2018 21:00:00 21,4 19,3 5 3 16 9 W 0,0
20.09.2018 20:00:00 22,1 19,3 10 5 22 12 NW -
20.09.2018 19:00:00 23,6 19,1 10 6 15 8 NW 0,0
20.09.2018 18:00:00 24,8 19,6 12 7 15 8 NW 0,0
20.09.2018 17:00:00 25,3 20,3 6 3 10 5 N 0,0
20.09.2018 16:00:00 24,8 20,3 6 3 16 9 NNE 0,0
20.09.2018 15:00:00 23,1 18,8 15 8 19 10 NNE 0,0
20.09.2018 14:00:00 23,1 18,4 12 6 19 10 NE -
20.09.2018 13:00:00 23,4 18,7 12 7 21 11 NE 0,0
20.09.2018 12:00:00 22,2 18,4 16 8 19 11 NE 0,0
20.09.2018 11:00:00 21,9 18,3 14 7 18 10 NE 0,0
20.09.2018 10:00:00 21,5 20,1 0 0 8 4 N 0,0
20.09.2018 09:00:00 19,8 18,8 4 2 9 5 SSE 0,0
20.09.2018 08:00:00 19,7 18,5 0 0 11 6 N -
20.09.2018 07:00:00 19,9 18,8 8 4 13 7 SSE 0,0
20.09.2018 06:00:00 20,8 19,6 5 3 9 5 SSE 0,0
20.09.2018 05:00:00 21,0 19,8 0 0 0 0 N 0,0
20.09.2018 04:00:00 21,1 19,9 0 0 8 4 SSE 0,0
20.09.2018 03:00:00 21,4 19,8 0 0 7 4 SSE 0,0
20.09.2018 02:00:00 21,6 19,7 1 1 7 4 SSE -
20.09.2018 01:00:00 21,6 19,5 1 0 10 6 E 0,0
20.09.2018 00:00:00 21,7 19,6 5 3 11 6 N 0,0
19.09.2018 23:00:00 21,8 19,9 6 3 12 7 N 0,0
19.09.2018 22:00:00 21,8 19,6 1 0 6 3 NNW 0,0
19.09.2018 21:00:00 22,0 19,6 0 0 0 0 N 0,0
19.09.2018 20:00:00 22,3 19,6 0 0 0 0 N -
19.09.2018 19:00:00 22,7 19,5 0 0 9 5 N 0,0
19.09.2018 18:00:00 23,6 19,6 4 2 9 5 NNW 0,0
19.09.2018 17:00:00 24,8 19,6 6 4 12 7 N 0,0
19.09.2018 16:00:00 25,3 20,1 9 5 13 7 NNE 0,0
19.09.2018 15:00:00 24,1 19,4 8 5 16 9 NNE 0,0
19.09.2018 14:00:00 23,3 19,1 13 7 21 11 NE -
19.09.2018 13:00:00 23,5 19,1 10 6 14 8 NE 0,0
19.09.2018 12:00:00 23,9 19,6 5 3 13 7 NE 0,0
19.09.2018 11:00:00 22,6 19,2 2 1 8 4 NNE 0,0
19.09.2018 10:00:00 20,6 19,4 3 2 12 7 S 0,0
19.09.2018 09:00:00 18,3 17,6 9 5 13 7 S 0,0
19.09.2018 08:00:00 18,3 17,6 9 5 13 7 S -
19.09.2018 07:00:00 18,5 17,7 3 2 11 6 S 0,0
19.09.2018 06:00:00 18,9 18,1 0 0 7 4 N 0,0
19.09.2018 05:00:00 19,7 18,9 4 2 11 6 S 0,0
19.09.2018 04:00:00 19,8 19,0 3 2 9 5 S 0,0
19.09.2018 03:00:00 19,6 18,8 0 0 8 4 N 0,0
19.09.2018 02:00:00 19,4 18,6 0 0 10 5 N -
19.09.2018 01:00:00 19,2 18,4 4 2 13 7 SSW 0,0
19.09.2018 00:00:00 19,2 18,2 6 4 12 6 S 0,0
18.09.2018 23:00:00 19,7 18,5 3 2 10 6 S 0,0
18.09.2018 22:00:00 20,5 19,1 3 2 9 5 S 0,0
18.09.2018 21:00:00 21,0 18,9 3 2 8 4 S 0,0
18.09.2018 20:00:00 21,9 19,4 5 3 10 6 NW -
18.09.2018 19:00:00 22,5 19,3 6 3 15 8 N 0,0
18.09.2018 18:00:00 23,2 19,3 8 4 20 11 E 0,0
18.09.2018 17:00:00 22,6 19,3 16 9 25 13 NE 0,0
18.09.2018 16:00:00 23,9 19,4 11 6 18 10 NE 0,0
18.09.2018 15:00:00 25,3 21,0 13 7 19 10 NW 0,0
18.09.2018 14:00:00 24,6 20,9 13 7 21 11 NW -
18.09.2018 13:00:00 23,5 19,6 13 7 17 9 NW 0,0
18.09.2018 12:00:00 23,5 19,8 11 6 14 8 NW 0,0
18.09.2018 11:00:00 21,0 18,5 1 1 20 11 SSE 0,0
18.09.2018 10:00:00 19,8 17,9 9 5 13 7 S 0,0
18.09.2018 09:00:00 19,0 17,7 10 5 28 15 S 0,0
18.09.2018 08:00:00 18,2 17,1 8 4 14 7 S -
18.09.2018 07:00:00 18,3 17,1 9 5 17 9 S 0,0
18.09.2018 06:00:00 18,5 17,1 8 4 14 8 S 0,0
18.09.2018 05:00:00 19,1 17,6 8 5 12 6 S 0,0
18.09.2018 04:00:00 19,8 18,1 7 4 12 6 SSW 0,0
18.09.2018 03:00:00 20,8 18,4 7 4 11 6 S 0,0
18.09.2018 02:00:00 - - - - - - - -
18.09.2018 01:00:00 22,6 19,2 11 6 24 13 NW 0,0
18.09.2018 00:00:00 22,8 19,6 10 5 22 12 WNW 0,0
17.09.2018 23:00:00 22,9 18,5 8 4 17 9 S 0,0
17.09.2018 22:00:00 23,1 18,8 11 6 59 32 WNW 0,0
17.09.2018 21:00:00 25,9 19,1 19 10 34 18 NW 0,0
17.09.2018 20:00:00 28,7 18,2 1 1 12 7 S -
17.09.2018 19:00:00 32,5 17,9 3 1 11 6 N 0,0
17.09.2018 18:00:00 32,4 18,6 1 1 24 13 E 0,0
17.09.2018 17:00:00 34,4 18,0 5 3 28 15 E 0,0
17.09.2018 16:00:00 33,8 18,7 11 6 30 16 E 0,0
17.09.2018 15:00:00 33,7 19,0 13 7 35 19 E 0,0
17.09.2018 14:00:00 32,6 18,0 15 8 42 23 E -
17.09.2018 13:00:00 31,0 17,7 18 10 42 23 E 0,0
17.09.2018 12:00:00 28,2 18,0 8 4 36 20 S 0,0
17.09.2018 11:00:00 22,6 20,3 1 0 18 10 SE 0,0
17.09.2018 10:00:00 20,3 19,6 3 2 13 7 NW 0,0
17.09.2018 09:00:00 18,6 18,1 6 3 11 6 S 0,0
17.09.2018 08:00:00 18,1 17,5 4 2 9 5 S -
17.09.2018 07:00:00 18,4 17,4 1 1 11 6 S 0,0
17.09.2018 06:00:00 19,1 17,9 1 0 10 6 S 0,0
17.09.2018 05:00:00 19,9 18,5 0 0 5 3 S 0,0
17.09.2018 04:00:00 20,2 18,5 0 0 0 0 N 0,0
17.09.2018 03:00:00 20,2 18,5 0 0 0 0 N 0,0
17.09.2018 02:00:00 20,5 18,5 0 0 9 5 N -

tt = Température de l'air
td = dewpoint
ff = Vitesse du vent
fx = gusts
dd = Direction du vent
rr = Quantités de précipitations

stations d'obs. à proximité